createdAt,value
2023-03-18T00:02:20.085Z,19.74
2023-03-18T00:04:47.795Z,19.73
2023-03-18T00:07:15.560Z,19.74
2023-03-18T00:09:43.341Z,19.73
2023-03-18T00:12:12.181Z,19.72
2023-03-18T00:14:41.242Z,19.71
2023-03-18T00:17:09.534Z,19.72
2023-03-18T00:19:37.254Z,19.72
2023-03-18T00:22:04.947Z,19.71
2023-03-18T00:24:32.615Z,19.71
2023-03-18T00:27:00.417Z,19.70
2023-03-18T00:29:28.071Z,19.70
2023-03-18T00:31:57.453Z,19.68
2023-03-18T00:34:25.979Z,19.68
2023-03-18T00:36:57.082Z,19.68
2023-03-18T00:39:26.637Z,19.69
2023-03-18T00:41:55.959Z,19.68
2023-03-18T00:44:25.269Z,19.69
2023-03-18T00:46:53.102Z,19.67
2023-03-18T00:49:22.160Z,19.68
2023-03-18T00:51:49.823Z,19.67
2023-03-18T00:54:19.668Z,19.67
2023-03-18T00:56:47.633Z,19.67
2023-03-18T00:59:15.319Z,19.66
2023-03-18T01:01:43.019Z,19.67
2023-03-18T01:04:11.466Z,19.67
2023-03-18T01:06:40.527Z,19.66
2023-03-18T01:09:08.902Z,19.66
2023-03-18T01:11:36.629Z,19.66
2023-03-18T01:14:04.604Z,19.66
2023-03-18T01:16:32.332Z,19.66
2023-03-18T01:19:00.039Z,19.66
2023-03-18T01:21:27.918Z,19.67
2023-03-18T01:23:57.046Z,19.67
2023-03-18T01:26:26.171Z,19.66
2023-03-18T01:28:53.968Z,19.65
2023-03-18T01:31:21.843Z,19.66
2023-03-18T01:33:49.899Z,19.66
2023-03-18T01:36:17.638Z,19.66
2023-03-18T01:38:45.333Z,19.66
2023-03-18T01:41:14.363Z,19.66
2023-03-18T01:43:43.108Z,19.65
2023-03-18T01:46:36.342Z,19.64
2023-03-18T01:49:06.396Z,19.64
2023-03-18T01:51:34.052Z,19.63
2023-03-18T01:54:03.252Z,19.62
2023-03-18T01:56:32.435Z,19.63
2023-03-18T01:59:00.249Z,19.63
2023-03-18T02:01:30.881Z,19.63
2023-03-18T02:03:59.710Z,19.62
2023-03-18T02:06:27.402Z,19.62
2023-03-18T02:08:55.460Z,19.62
2023-03-18T02:13:52.479Z,19.61
2023-03-18T02:16:22.569Z,19.62
2023-03-18T02:18:51.396Z,19.62
2023-03-18T02:21:27.155Z,19.61
2023-03-18T02:23:57.792Z,19.61
2023-03-18T02:26:28.512Z,19.61
2023-03-18T02:28:59.356Z,19.60
2023-03-18T02:31:27.190Z,19.59
2023-03-18T02:33:54.900Z,19.59
2023-03-18T02:36:25.271Z,19.60
2023-03-18T02:38:52.938Z,19.58
2023-03-18T02:41:21.660Z,19.59
2023-03-18T02:43:49.435Z,19.58
2023-03-18T02:46:30.766Z,19.58
2023-03-18T02:48:59.031Z,19.57
2023-03-18T02:51:27.141Z,19.58
2023-03-18T02:53:55.684Z,19.57
2023-03-18T02:56:23.502Z,19.57
2023-03-18T02:58:51.828Z,19.56
2023-03-18T03:01:19.599Z,19.55
2023-03-18T03:03:48.660Z,19.55
2023-03-18T03:06:16.933Z,19.55
2023-03-18T03:08:44.715Z,19.54
2023-03-18T03:11:12.557Z,19.54
2023-03-18T03:13:41.394Z,19.55
2023-03-18T03:16:10.640Z,19.54
2023-03-18T03:18:38.350Z,19.55
2023-03-18T03:21:07.775Z,19.54
2023-03-18T03:23:35.584Z,19.54
2023-03-18T03:26:04.142Z,19.53
2023-03-18T03:28:32.742Z,19.53
2023-03-18T03:31:00.666Z,19.53
2023-03-18T03:33:28.451Z,19.52
2023-03-18T03:35:58.010Z,19.52
2023-03-18T03:38:27.164Z,19.51
2023-03-18T03:40:54.887Z,19.51
2023-03-18T03:43:22.598Z,19.51
2023-03-18T03:45:50.694Z,19.52
2023-03-18T03:48:18.399Z,19.52
2023-03-18T03:50:46.556Z,19.51
2023-03-18T03:53:14.298Z,19.51
2023-03-18T03:55:44.436Z,19.50
2023-03-18T03:58:12.106Z,19.49
2023-03-18T04:00:39.785Z,19.48
2023-03-18T04:03:07.494Z,19.50
2023-03-18T04:05:35.182Z,19.49
2023-03-18T04:08:02.871Z,19.47
2023-03-18T04:10:31.127Z,19.48
2023-03-18T04:13:00.295Z,19.48
2023-03-18T04:15:28.503Z,19.47
2023-03-18T04:17:56.351Z,19.47
2023-03-18T04:20:24.015Z,19.47
2023-03-18T04:22:51.818Z,19.45
2023-03-18T04:25:19.749Z,19.46
2023-03-18T04:27:47.445Z,19.45
2023-03-18T04:30:17.795Z,19.45
2023-03-18T04:32:45.508Z,19.44
2023-03-18T04:35:13.403Z,19.43
2023-03-18T04:37:41.054Z,19.42
2023-03-18T04:40:09.693Z,19.43
2023-03-18T04:42:37.351Z,19.43
2023-03-18T04:45:05.852Z,19.42
2023-03-18T04:47:35.938Z,19.42
2023-03-18T04:50:04.550Z,19.42
2023-03-18T04:52:32.292Z,19.41
2023-03-18T04:55:00.293Z,19.42
2023-03-18T04:57:28.541Z,19.40
2023-03-18T04:59:56.612Z,19.41
2023-03-18T05:02:24.601Z,19.40
2023-03-18T05:04:53.618Z,19.40
2023-03-18T05:07:21.674Z,19.40
2023-03-18T05:09:49.386Z,19.39
2023-03-18T05:12:17.408Z,19.38
2023-03-18T05:14:45.163Z,19.38
2023-03-18T05:17:15.742Z,19.38
2023-03-18T05:19:44.442Z,19.37
2023-03-18T05:22:13.724Z,19.38
2023-03-18T05:24:41.454Z,19.37
2023-03-18T05:27:09.275Z,19.37
2023-03-18T05:29:38.103Z,19.38
2023-03-18T05:32:07.026Z,19.37
2023-03-18T05:34:34.862Z,19.37
2023-03-18T05:37:02.988Z,19.37
2023-03-18T05:39:33.086Z,19.37
2023-03-18T05:42:00.806Z,19.37
2023-03-18T05:44:28.469Z,19.37
2023-03-18T05:46:56.213Z,19.38
2023-03-18T05:49:24.479Z,19.38
2023-03-18T05:51:54.808Z,19.39
2023-03-18T05:54:22.650Z,19.40
2023-03-18T05:56:52.686Z,19.40
2023-03-18T05:59:20.619Z,19.41
2023-03-18T06:01:49.033Z,19.42
2023-03-18T06:04:18.366Z,19.41
2023-03-18T06:06:46.373Z,19.43
2023-03-18T06:09:14.141Z,19.43
2023-03-18T06:11:42.189Z,19.43
2023-03-18T06:14:11.379Z,19.44
2023-03-18T06:16:39.308Z,19.45
2023-03-18T06:19:07.708Z,19.44
2023-03-18T06:21:36.192Z,19.45
2023-03-18T06:24:03.869Z,19.45
2023-03-18T06:26:31.526Z,19.46
2023-03-18T06:28:59.355Z,19.46
2023-03-18T06:31:28.545Z,19.46
2023-03-18T06:33:56.251Z,19.47
2023-03-18T06:36:23.946Z,19.47
2023-03-18T06:38:52.031Z,19.49
2023-03-18T06:41:19.725Z,19.49
2023-03-18T06:43:50.412Z,19.48
2023-03-18T06:46:18.708Z,19.50
2023-03-18T06:48:48.879Z,19.49
2023-03-18T06:51:16.596Z,19.50
2023-03-18T06:53:44.267Z,19.51
2023-03-18T06:56:15.747Z,19.51
2023-03-18T06:58:43.458Z,19.52
2023-03-18T07:01:12.445Z,19.54
2023-03-18T07:03:40.181Z,19.57
2023-03-18T07:06:10.290Z,19.58
2023-03-18T07:08:37.993Z,19.57
2023-03-18T07:11:07.062Z,19.57
2023-03-18T07:13:35.771Z,19.57
2023-03-18T07:16:03.557Z,19.56
2023-03-18T07:18:31.447Z,19.55
2023-03-18T07:20:59.670Z,19.57
2023-03-18T07:23:28.750Z,19.58
2023-03-18T07:25:56.472Z,19.58
2023-03-18T07:28:24.182Z,19.58
2023-03-18T07:30:54.142Z,19.58
2023-03-18T07:33:22.125Z,19.58
2023-03-18T07:35:49.993Z,19.59
2023-03-18T07:38:18.124Z,19.58
2023-03-18T07:40:47.311Z,19.58
2023-03-18T07:43:15.379Z,19.59
2023-03-18T07:45:44.296Z,19.59
2023-03-18T07:48:12.667Z,19.60
2023-03-18T07:50:40.870Z,19.60
2023-03-18T07:53:08.542Z,19.60
2023-03-18T07:55:36.229Z,19.61
2023-03-18T07:58:05.412Z,19.60
2023-03-18T08:00:33.483Z,19.62
2023-03-18T08:03:01.143Z,19.61
2023-03-18T08:05:28.864Z,19.62
2023-03-18T08:07:56.603Z,19.62
2023-03-18T08:10:25.297Z,19.62
2023-03-18T08:12:54.072Z,19.62
2023-03-18T08:15:23.330Z,19.62
2023-03-18T08:17:51.095Z,19.62
2023-03-18T08:20:19.107Z,19.62
2023-03-18T08:22:46.826Z,19.63
2023-03-18T08:25:15.040Z,19.63
2023-03-18T08:27:42.737Z,19.63
2023-03-18T08:30:11.403Z,19.63
2023-03-18T08:32:40.578Z,19.63
2023-03-18T08:35:09.702Z,19.63
2023-03-18T08:37:37.641Z,19.64
2023-03-18T08:40:06.133Z,19.64
2023-03-18T08:42:33.824Z,19.63
2023-03-18T08:45:01.808Z,19.63
2023-03-18T08:47:29.524Z,19.63
2023-03-18T08:49:58.726Z,19.64
2023-03-18T08:52:26.553Z,19.63
2023-03-18T08:54:54.323Z,19.65
2023-03-18T08:57:22.075Z,19.66
2023-03-18T08:59:49.955Z,19.66
2023-03-18T09:02:18.333Z,19.67
2023-03-18T09:04:47.604Z,19.69
2023-03-18T09:07:18.965Z,19.69
2023-03-18T09:09:46.861Z,19.70
2023-03-18T09:12:15.014Z,19.71
2023-03-18T09:14:43.873Z,19.71
2023-03-18T09:17:11.708Z,19.72
2023-03-18T09:19:39.465Z,19.72
2023-03-18T09:22:07.160Z,19.73
2023-03-18T09:24:36.179Z,19.75
2023-03-18T09:27:03.861Z,19.76
2023-03-18T09:29:31.917Z,19.76
2023-03-18T09:32:00.598Z,19.78
2023-03-18T09:34:28.283Z,19.79
2023-03-18T09:36:58.092Z,19.80
2023-03-18T09:39:25.951Z,19.81
2023-03-18T09:42:03.475Z,19.82
2023-03-18T09:44:31.729Z,19.81
2023-03-18T09:47:24.737Z,19.81
2023-03-18T09:50:08.276Z,19.81
2023-03-18T09:52:37.108Z,19.82
2023-03-18T09:55:05.860Z,19.84
2023-03-18T09:57:35.854Z,19.86
2023-03-18T10:00:08.980Z,19.90
2023-03-18T10:02:37.863Z,19.92
2023-03-18T10:05:06.810Z,19.94
2023-03-18T10:07:36.660Z,19.95
2023-03-18T10:10:06.730Z,19.94
2023-03-18T10:12:36.566Z,19.91
2023-03-18T10:15:14.718Z,19.91
2023-03-18T10:17:43.454Z,19.91
2023-03-18T10:20:17.112Z,19.92
2023-03-18T10:22:55.626Z,19.95
2023-03-18T10:25:27.080Z,19.96
2023-03-18T10:28:06.684Z,19.98
2023-03-18T10:30:42.972Z,20.01
2023-03-18T10:33:15.357Z,20.03
2023-03-18T10:35:46.756Z,20.04
2023-03-18T10:38:19.214Z,20.09
2023-03-18T10:40:49.283Z,20.10
2023-03-18T10:43:20.470Z,20.12
2023-03-18T10:45:49.528Z,20.16
2023-03-18T10:48:20.189Z,20.19
2023-03-18T10:50:51.548Z,20.25
2023-03-18T10:53:21.039Z,20.29
2023-03-18T10:55:57.423Z,20.31
2023-03-18T10:58:28.035Z,20.33
2023-03-18T11:00:55.724Z,20.35
2023-03-18T11:03:26.042Z,20.41
2023-03-18T11:05:53.860Z,20.43
2023-03-18T11:08:35.450Z,20.45
2023-03-18T11:11:27.663Z,20.47
2023-03-18T11:14:01.744Z,20.48
2023-03-18T11:16:35.853Z,20.50
2023-03-18T11:19:09.115Z,20.50
2023-03-18T11:21:37.499Z,20.55
2023-03-18T11:24:20.940Z,20.57
2023-03-18T11:26:53.558Z,20.60
2023-03-18T11:29:24.378Z,20.61
2023-03-18T11:31:54.799Z,20.58
2023-03-18T11:34:22.521Z,20.59
2023-03-18T11:37:01.173Z,20.58
2023-03-18T11:39:30.785Z,20.58
2023-03-18T11:41:59.456Z,20.57
2023-03-18T11:44:32.502Z,20.58
2023-03-18T11:47:03.886Z,20.58
2023-03-18T11:49:31.634Z,20.61
2023-03-18T11:52:06.585Z,20.63
2023-03-18T11:55:02.107Z,20.64
2023-03-18T11:57:33.208Z,20.61
2023-03-18T12:00:11.330Z,20.61
2023-03-18T12:03:06.881Z,20.62
2023-03-18T12:05:55.048Z,20.64
2023-03-18T12:08:29.610Z,20.70
2023-03-18T12:11:05.938Z,20.68
2023-03-18T12:13:37.622Z,20.69
2023-03-18T12:16:10.856Z,20.74
2023-03-18T12:18:45.751Z,20.79
2023-03-18T12:21:37.726Z,20.84
2023-03-18T12:24:13.348Z,20.88
2023-03-18T12:26:41.932Z,20.88
2023-03-18T12:29:19.942Z,20.90
2023-03-18T12:31:53.367Z,20.96
2023-03-18T12:34:28.732Z,21.00
2023-03-18T12:37:04.105Z,21.04
2023-03-18T12:40:19.910Z,21.10
2023-03-18T12:42:55.622Z,21.12
2023-03-18T12:45:24.293Z,21.11
2023-03-18T12:47:55.100Z,21.07
2023-03-18T12:50:25.392Z,21.06
2023-03-18T12:52:54.956Z,21.07
2023-03-18T12:55:24.364Z,21.06
2023-03-18T12:57:55.027Z,21.07
2023-03-18T13:00:25.929Z,21.13
2023-03-18T13:02:59.153Z,21.14
2023-03-18T13:05:36.770Z,21.14
2023-03-18T13:08:41.641Z,21.19
2023-03-18T13:11:12.415Z,21.24
2023-03-18T13:13:41.340Z,21.28
2023-03-18T13:16:09.049Z,21.30
2023-03-18T13:18:40.396Z,21.35
2023-03-18T13:21:08.140Z,21.39
2023-03-18T13:23:42.522Z,21.41
2023-03-18T13:26:12.419Z,21.43
2023-03-18T13:28:46.127Z,21.44
2023-03-18T13:31:19.952Z,21.43
2023-03-18T13:34:11.155Z,21.39
2023-03-18T13:37:08.524Z,21.36
2023-03-18T13:39:43.784Z,21.35
2023-03-18T13:42:20.472Z,21.37
2023-03-18T13:44:51.062Z,21.43
2023-03-18T13:47:19.685Z,21.52
2023-03-18T13:49:49.145Z,21.55
2023-03-18T13:52:24.288Z,21.63
2023-03-18T13:54:52.706Z,21.66
2023-03-18T13:57:33.853Z,21.63
2023-03-18T14:00:25.361Z,21.62
2023-03-18T14:03:07.702Z,21.61
2023-03-18T14:05:40.211Z,21.59
2023-03-18T14:08:34.194Z,21.69
2023-03-18T14:11:47.579Z,21.66
2023-03-18T14:14:41.220Z,21.63
2023-03-18T14:17:19.142Z,21.59
2023-03-18T14:19:47.162Z,21.57
2023-03-18T14:22:20.554Z,21.56
2023-03-18T14:24:48.739Z,21.52
2023-03-18T14:27:18.239Z,21.48
2023-03-18T14:29:47.265Z,21.45
2023-03-18T14:32:38.129Z,21.42
2023-03-18T14:35:18.261Z,21.38
2023-03-18T14:38:00.790Z,21.37
2023-03-18T14:40:28.532Z,21.34
2023-03-18T14:42:58.530Z,21.33
2023-03-18T14:45:27.456Z,21.33
2023-03-18T14:47:55.485Z,21.34
2023-03-18T14:50:30.713Z,21.33
2023-03-18T14:53:03.903Z,21.31
2023-03-18T14:55:32.701Z,21.30
2023-03-18T14:58:01.133Z,21.28
2023-03-18T15:00:31.250Z,21.25
2023-03-18T15:03:01.432Z,21.24
2023-03-18T15:05:32.671Z,21.23
2023-03-18T15:08:01.891Z,21.24
2023-03-18T15:10:31.597Z,21.30
2023-03-18T15:13:04.360Z,21.57
2023-03-18T15:15:32.870Z,21.71
2023-03-18T15:18:05.964Z,21.65
2023-03-18T15:20:34.453Z,21.59
2023-03-18T15:23:04.658Z,21.54
2023-03-18T15:25:32.500Z,21.52
2023-03-18T15:28:01.154Z,21.50
2023-03-18T15:30:29.678Z,21.63
2023-03-18T15:33:04.571Z,21.61
2023-03-18T15:35:32.812Z,21.62
2023-03-18T15:38:17.356Z,21.72
2023-03-18T15:40:49.674Z,21.87
2023-03-18T15:43:28.994Z,21.97
2023-03-18T15:45:58.599Z,22.02
2023-03-18T15:48:29.861Z,22.08
2023-03-18T15:50:59.962Z,22.03
2023-03-18T15:53:30.265Z,21.95
2023-03-18T15:55:58.640Z,22.00
2023-03-18T15:58:27.552Z,22.07
2023-03-18T16:00:55.853Z,22.04
2023-03-18T16:03:24.635Z,22.04
2023-03-18T16:05:52.665Z,22.02
2023-03-18T16:08:21.365Z,21.99
2023-03-18T16:10:51.118Z,21.95
2023-03-18T16:13:21.460Z,21.90
2023-03-18T16:15:49.264Z,21.85
2023-03-18T16:18:18.163Z,21.80
2023-03-18T16:20:46.696Z,21.75
2023-03-18T16:23:15.280Z,21.74
2023-03-18T16:25:46.001Z,21.77
2023-03-18T16:28:21.052Z,21.79
2023-03-18T16:30:49.550Z,21.79
2023-03-18T16:33:18.117Z,21.75
2023-03-18T16:35:46.653Z,21.72
2023-03-18T16:38:15.505Z,21.67
2023-03-18T16:40:43.287Z,21.62
2023-03-18T16:43:19.881Z,21.59
2023-03-18T16:45:48.519Z,21.55
2023-03-18T16:48:17.571Z,21.53
2023-03-18T16:50:47.500Z,21.49
2023-03-18T16:53:18.380Z,21.46
2023-03-18T16:55:46.804Z,21.42
2023-03-18T16:58:17.191Z,21.39
2023-03-18T17:00:48.168Z,21.36
2023-03-18T17:03:18.100Z,21.33
2023-03-18T17:05:46.302Z,21.30
2023-03-18T17:08:14.158Z,21.26
2023-03-18T17:10:42.484Z,21.21
2023-03-18T17:13:14.834Z,21.20
2023-03-18T17:15:42.899Z,21.15
2023-03-18T17:18:14.695Z,21.12
2023-03-18T17:20:42.561Z,21.09
2023-03-18T17:23:15.480Z,21.05
2023-03-18T17:25:43.845Z,21.02
2023-03-18T17:28:11.984Z,20.97
2023-03-18T17:30:40.267Z,20.96
2023-03-18T17:33:24.611Z,20.92
2023-03-18T17:35:52.673Z,20.89
2023-03-18T17:38:20.455Z,20.87
2023-03-18T17:40:48.705Z,20.83
2023-03-18T17:43:22.456Z,20.81
2023-03-18T17:45:50.223Z,20.79
2023-03-18T17:48:19.849Z,20.77
2023-03-18T17:50:49.238Z,20.74
2023-03-18T17:53:24.596Z,20.71
2023-03-18T17:55:53.372Z,20.70
2023-03-18T17:58:22.154Z,20.68
2023-03-18T18:00:50.073Z,20.65
2023-03-18T18:03:25.545Z,20.64
2023-03-18T18:05:55.122Z,20.61
2023-03-18T18:08:24.433Z,20.59
2023-03-18T18:10:52.124Z,20.57
2023-03-18T18:13:21.743Z,20.55
2023-03-18T18:15:50.513Z,20.54
2023-03-18T18:18:23.923Z,20.51
2023-03-18T18:20:54.941Z,20.50
2023-03-18T18:23:25.076Z,20.47
2023-03-18T18:25:52.992Z,20.47
2023-03-18T18:28:22.076Z,20.45
2023-03-18T18:30:49.865Z,20.44
2023-03-18T18:33:17.589Z,20.43
2023-03-18T18:35:45.276Z,20.42
2023-03-18T18:38:14.303Z,20.40
2023-03-18T18:40:42.518Z,20.39
2023-03-18T18:43:10.959Z,20.38
2023-03-18T18:45:38.660Z,20.37
2023-03-18T18:48:14.056Z,20.36
2023-03-18T18:50:42.361Z,20.36
2023-03-18T18:53:16.016Z,20.34
2023-03-18T18:55:43.723Z,20.33
2023-03-18T18:58:18.623Z,20.32
2023-03-18T19:00:48.432Z,20.31
2023-03-18T19:03:16.691Z,20.30
2023-03-18T19:05:45.800Z,20.29
2023-03-18T19:08:25.399Z,20.28
2023-03-18T19:10:54.262Z,20.26
2023-03-18T19:13:22.021Z,20.25
2023-03-18T19:15:50.011Z,20.24
2023-03-18T19:18:19.612Z,20.23
2023-03-18T19:20:48.165Z,20.23
2023-03-18T19:23:17.448Z,20.23
2023-03-18T19:25:47.631Z,20.21
2023-03-18T19:28:18.405Z,20.20
2023-03-18T19:30:46.087Z,20.19
2023-03-18T19:33:15.315Z,20.18
2023-03-18T19:35:43.186Z,20.17
2023-03-18T19:38:16.195Z,20.17
2023-03-18T19:40:43.896Z,20.15
2023-03-18T19:43:19.418Z,20.15
2023-03-18T19:45:48.712Z,20.13
2023-03-18T19:48:19.038Z,20.13
2023-03-18T19:50:46.890Z,20.14
2023-03-18T19:53:15.675Z,20.13
2023-03-18T19:55:43.466Z,20.12
2023-03-18T19:58:14.649Z,20.12
2023-03-18T20:00:43.817Z,20.11
2023-03-18T20:03:16.288Z,20.09
2023-03-18T20:05:44.008Z,20.09
2023-03-18T20:08:11.737Z,20.09
2023-03-18T20:10:39.521Z,20.09
2023-03-18T20:13:07.404Z,20.08
2023-03-18T20:15:35.452Z,20.07
2023-03-18T20:18:06.295Z,20.06
2023-03-18T20:20:34.354Z,20.06
2023-03-18T20:23:03.423Z,20.06
2023-03-18T20:25:34.131Z,20.04
2023-03-18T20:28:03.812Z,20.05
2023-03-18T20:30:32.724Z,20.03
2023-03-18T20:33:03.789Z,20.03
2023-03-18T20:35:34.010Z,20.03
2023-03-18T20:38:04.705Z,20.01
2023-03-18T20:40:32.680Z,20.01
2023-03-18T20:43:00.489Z,20.01
2023-03-18T20:45:28.184Z,20.00
2023-03-18T20:47:56.597Z,20.00
2023-03-18T20:50:28.299Z,19.99
2023-03-18T20:52:57.427Z,19.98
2023-03-18T20:55:26.500Z,19.97
2023-03-18T20:57:54.352Z,19.97
2023-03-18T21:00:23.905Z,19.96
2023-03-18T21:02:52.382Z,19.97
2023-03-18T21:05:20.344Z,19.95
2023-03-18T21:07:48.527Z,19.95
2023-03-18T21:10:18.680Z,19.95
2023-03-18T21:12:46.503Z,19.93
2023-03-18T21:15:18.332Z,19.94
2023-03-18T21:17:46.624Z,19.94
2023-03-18T21:20:22.049Z,19.93
2023-03-18T21:22:50.460Z,19.94
2023-03-18T21:25:21.053Z,19.93
2023-03-18T21:27:48.806Z,19.92
2023-03-18T21:30:17.203Z,19.92
2023-03-18T21:32:46.200Z,19.92
2023-03-18T21:35:17.130Z,19.92
2023-03-18T21:37:44.834Z,19.92
2023-03-18T21:40:17.032Z,19.91
2023-03-18T21:42:46.245Z,19.91
2023-03-18T21:45:14.808Z,19.91
2023-03-18T21:47:43.700Z,19.92
2023-03-18T21:50:19.938Z,19.90
2023-03-18T21:52:47.741Z,19.90
2023-03-18T21:55:15.617Z,19.90
2023-03-18T21:57:43.341Z,19.90
2023-03-18T22:00:17.523Z,19.90
2023-03-18T22:02:45.388Z,19.88
2023-03-18T22:05:14.355Z,19.88
2023-03-18T22:07:42.471Z,19.88
2023-03-18T22:10:12.948Z,19.88
2023-03-18T22:12:40.679Z,19.87
2023-03-18T22:15:27.527Z,19.87
2023-03-18T22:17:55.397Z,19.86
2023-03-18T22:20:23.282Z,19.86
2023-03-18T22:22:50.948Z,19.85
2023-03-18T22:25:21.571Z,19.86
2023-03-18T22:27:49.248Z,19.86
2023-03-18T22:30:17.161Z,19.85
2023-03-18T22:32:47.008Z,19.84
2023-03-18T22:35:15.690Z,19.84
2023-03-18T22:37:43.359Z,19.84
2023-03-18T22:40:15.856Z,19.83
2023-03-18T22:42:43.533Z,19.82
2023-03-18T22:45:19.647Z,19.83
2023-03-18T22:47:48.904Z,19.82
2023-03-18T22:50:16.905Z,19.81
2023-03-18T22:52:44.573Z,19.82
2023-03-18T22:55:18.291Z,19.81
2023-03-18T22:57:46.097Z,19.81
2023-03-18T23:00:23.953Z,19.80
2023-03-18T23:02:53.222Z,19.81
2023-03-18T23:05:21.801Z,19.80
2023-03-18T23:07:49.968Z,19.80
2023-03-18T23:10:18.207Z,19.79
2023-03-18T23:12:46.092Z,19.78
2023-03-18T23:15:16.133Z,19.78
2023-03-18T23:17:44.039Z,19.77
2023-03-18T23:20:13.599Z,19.77
2023-03-18T23:22:41.317Z,19.76
2023-03-18T23:25:11.305Z,19.76
2023-03-18T23:27:38.977Z,19.76
2023-03-18T23:30:08.245Z,19.75
2023-03-18T23:32:36.054Z,19.75
2023-03-18T23:35:03.728Z,19.75
2023-03-18T23:37:32.747Z,19.74
2023-03-18T23:40:00.613Z,19.74
2023-03-18T23:42:28.282Z,19.73
2023-03-18T23:44:55.976Z,19.73
2023-03-18T23:47:23.664Z,19.72
2023-03-18T23:49:51.329Z,19.72
2023-03-18T23:52:19.059Z,19.72
2023-03-18T23:54:48.084Z,19.71
2023-03-18T23:57:15.801Z,19.71
2023-03-18T23:59:43.507Z,19.70
